Аэропорт: Одесса. Одесса

ICAO: UKOO

METAR:
2019/05/26 14:00
UKOO 261400Z 30006MPS 270V340 9999 FEW///TCU 25/12 Q1013 R34/290054 NOSIG
METAR:
2019/05/26 12:09
TAF UKOO 261105Z 2612/2712 32003G08MPS 6000 BKN010 SCT020CB TX25/2711Z TN14/2702Z 
      TEMPO 2612/2615 VRB10G18MPS 0800 +TSRAGR SQ VV003 PROB40 
      TEMPO 2615/2618 VRB12MPS 1000 TSRA 
      BECMG 2618/2619 2100 BR PROB40 
      TEMPO 2619/2705 0300 FG VV002 
      BECMG 2705/2706 15005MPS 6000 NSW